Todos Santos, Mexico

3:12 AM MDT on August 26, 2016 (GMT -0600)
Upper Las Brisas | | Change Station

Elev 184 ft 23.46 °N, 110.24 °W | Updated 16 seconds ago

Clear
Clear
79.0 °F
Feels Like 78 °F
N
2.5
Wind Variable Wind from NNE
Gusts 4.9 mph

Today
High -- | Low -- °F
--% Chance of Precip.
Yesterday
High -- | Low -- °F
Precip. -- in
Pressure 29.92 in
Visibility 10.0 miles
Clouds Clear
Heat Index 78 °F
Dew Point 39 °F
Humidity 24%
Rainfall 0.00 in
Snow Depth Not available.
7:01 AM 7:43 PM
Last Quarter, 36% visible
METAR MMSD 260741Z 29005KT 10SM SKC 24/21 A2992
Pressure 29.92 in
Visibility 10.0 miles
Clouds Clear
Heat Index 78 °F
Dew Point 39 °F
Humidity 24%
Rainfall 0.00 in
Snow Depth Not available.
7:01 AM 7:43 PM
Last Quarter, 36% visible
METAR MMSD 260741Z 29005KT 10SM SKC 24/21 A2992

10-Day Weather Forecast

No radar image for this location.
×

Almanac

Astronomy

Aug. 26, 2016 Rise Set
Actual Time
Civil Twilight
Nautical Twilight
Astronomical Twilight
Moon
Length of Visible Light
Length of Day
Tomorrow will be .
, % of the Moon is Illuminated

Today's Extremes

Country Highs Country Lows

Community

WunderPhotos

Upload Photos

1,935,069 photos uploaded!

WunderBlog® & News

Nearby

Air Quality

  Air Quality AQ Index Pollutant
Not available.

Snow Depth

Station Depth Elevation

Earthquake Activity

City Distance Mag. Time & Date
Minimum magnitude displayed is 2.5.

Coastal Water Temperatures

Place Temperature

Stations

Nearby Weather Stations

Station Location Temp. Windchill Dew Point Humidity Wind Precip. Elev Updated Type